ADDS METAR Data INFO
IDs: Format: Raw Decoded Include TAF

Data at: 1958 UTC 18 Feb 2018

KPZQ 181955Z AUTO 20006KT 10SM SCT070 OVC090 02/M08 A3017 RMK AO2 T00201076
KPZQ 181935Z AUTO 22007KT 10SM OVC090 02/M07 A3018 RMK AO2 T00201075
KPZQ 181915Z AUTO 22007KT 10SM SCT080 OVC090 02/M08 A3020 RMK AO2 T00201077
KPZQ 181855Z AUTO 22008KT 10SM OVC100 02/M08 A3020 RMK AO2 T00171079
KPZQ 181836Z AUTO 24008KT 10SM BKN100 02/M07 A3020 RMK AO2 T00161075
KPZQ 181815Z AUTO 19005KT 10SM SCT038 SCT110 01/M08 A3020 RMK AO2 T00121078
KPZQ 181755Z AUTO 23006KT 10SM BKN038 02/M07 A3020 RMK AO2 T00151071 10015 21065
KPZQ 181735Z AUTO 23008KT 10SM SCT032 01/M06 A3022 RMK AO2 T00071063
KPZQ 181715Z AUTO 21007G15KT 10SM BKN032 00/M07 A3022 RMK AO2 T00021068
KPZQ 181655Z AUTO 17008KT 10SM BKN032 00/M07 A3020 RMK AO2 T00001072
KPZQ 181635Z AUTO 16004KT 10SM BKN036 M01/M08 A3021 RMK AO2 T10071080
KPZQ 181615Z AUTO 21005KT 10SM OVC036 M01/M08 A3022 RMK AO2 T10151085
KPZQ 181555Z AUTO 18004KT 10SM OVC034 M02/M08 A3023 RMK AO2 T10191079
KPZQ 181535Z AUTO 20004KT 10SM OVC036 M02/M07 A3023 RMK AO2 T10231074
KPZQ 181515Z AUTO 22003KT 10SM OVC038 M02/M07 A3022 RMK AO2 T10231073
KPZQ 181455Z AUTO 23005KT 10SM OVC040 M03/M07 A3022 RMK AO2 T10271075
KPZQ 181435Z AUTO 23003KT 10SM OVC042 M03/M07 A3022 RMK AO2 T10311073
KPZQ 181415Z AUTO 00000KT 10SM OVC044 M04/M07 A3022 RMK AO2 T10361071
KPZQ 181355Z AUTO 00000KT 10SM OVC044 M04/M07 A3022 RMK AO2 T10411070
KPZQ 181335Z AUTO 00000KT 10SM OVC044 M05/M07 A3021 RMK AO2 T10481072
KPZQ 181315Z AUTO 22004KT 10SM SCT044 M06/M08 A3021 RMK AO2 T10581079
KPZQ 181255Z AUTO 22003KT 10SM CLR M06/M09 A3018 RMK AO2 T10651086
KPZQ 181235Z AUTO 00000KT 10SM CLR M06/M09 A3017 RMK AO2 T10611087
KPZQ 181215Z AUTO 00000KT 10SM CLR M06/M09 A3017 RMK AO2 T10581091
KPZQ 181155Z AUTO 24004KT 10SM CLR M05/M09 A3016 RMK AO2 T10541088 11015 21054
KPZQ 181135Z AUTO 25005KT 10SM SCT027 M05/M08 A3016 RMK AO2 T10501084
KPZQ 181115Z AUTO 27005KT 10SM SCT027 M05/M08 A3013 RMK AO2 T10471080
KPZQ 181055Z AUTO 28003KT 10SM CLR M04/M08 A3011 RMK AO2 T10401076
KPZQ 181035Z AUTO 27003KT 10SM CLR M04/M07 A3011 RMK AO2 T10371073
KPZQ 181015Z AUTO 28005KT 10SM CLR M03/M07 A3010 RMK AO2 T10351070
KPZQ 180955Z AUTO 28005KT 10SM SCT031 SCT039 M03/M07 A3010 RMK AO2 T10311066
KPZQ 180935Z AUTO 29005KT 10SM SCT029 SCT039 BKN049 M03/M07 A3008 RMK AO2 T10281067
KPZQ 180915Z AUTO 30007KT 10SM BKN049 M02/M06 A3006 RMK AO2 T10251063
KPZQ 180855Z AUTO 28006KT 10SM BKN049 OVC065 M02/M05 A3005 RMK AO2 T10251054
KPZQ 180835Z AUTO 27003KT 10SM BKN039 OVC065 M02/M05 A3003 RMK AO2 T10241047
KPZQ 180815Z AUTO 28004KT 2 1/2SM -SN SCT018 SCT023 OVC039 M02/M05 A3003 RMK AO2 T10221046
KPZQ 180755Z AUTO 29003KT 5SM -SN BKN020 OVC027 M02/M05 A3002 RMK AO2 T10191050
KPZQ 180735Z AUTO 29004KT 7SM OVC022 M02/M05 A3001 RMK AO2 T10171051
KPZQ 180715Z AUTO 29003KT 10SM OVC022 M02/M05 A2999 RMK AO2 T10161055
KPZQ 180655Z AUTO 29007KT 10SM BKN024 BKN033 OVC039 M02/M06 A2998 RMK AO2 T10161056
KPZQ 180635Z AUTO 29007KT 10SM -SN SCT024 OVC031 M02/M06 A2997 RMK AO2 T10161056
KPZQ 180615Z AUTO 29008G18KT 10SM BKN022 OVC028 M02/M06 A2996 RMK AO2 T10161056
KPZQ 180555Z AUTO 29007G17KT 10SM -SN OVC020 M01/M05 A2996 RMK AO2 T10151052 11005 21022
KPZQ 180535Z AUTO 28007G15KT 10SM OVC022 M01/M05 A2994 RMK AO2 T10141050
KPZQ 180515Z AUTO 29008KT 10SM BKN014 OVC020 M01/M04 A2993 RMK AO2 T10151040
KPZQ 180455Z AUTO 27008KT 10SM OVC012 M01/M04 A2992 RMK AO2 T10151040
KPZQ 180435Z AUTO 26008KT 10SM OVC014 M02/M04 A2991 RMK AO2 T10161044
KPZQ 180415Z AUTO 26007G15KT 10SM OVC014 M02/M05 A2990 RMK AO2 T10161046
KPZQ 180355Z AUTO 25009KT 10SM OVC018 M02/M05 A2989 RMK AO2 T10171048 400171096
KPZQ 180335Z AUTO 25009KT 10SM OVC020 M02/M05 A2989 RMK AO2 T10181050
KPZQ 180315Z AUTO 26009KT 10SM BKN020 OVC027 M02/M05 A2989 RMK AO2 T10201050
KPZQ 180255Z AUTO 24010G15KT 10SM SCT022 BKN027 OVC095 M02/M05 A2988 RMK AO2 T10221047
KPZQ 180235Z AUTO 24011G16KT 10SM SCT016 SCT036 OVC095 M02/M04 A2987 RMK AO2 T10221045
KPZQ 180215Z AUTO 24009KT 4SM -SN SCT018 BKN044 OVC085 M02/M04 A2987 RMK AO2 T10211042
KPZQ 180155Z AUTO 24007KT 4SM -SN OVC043 M02/M04 A2987 RMK AO2 T10201042
KPZQ 180135Z AUTO 23011G17KT 4SM -SN SCT032 OVC041 M02/M04 A2985 RMK AO2 T10201045
KPZQ 180115Z AUTO 24008KT 4SM -SN SCT023 BKN032 OVC039 M02/M05 A2985 RMK AO2 T10171050
KPZQ 180055Z AUTO 24015G19KT 10SM BKN034 OVC042 M01/M06 A2986 RMK AO2 T10101060
KPZQ 180036Z AUTO 23014G17KT 10SM BKN041 OVC048 M01/M07 A2985 RMK AO2 T10071067
KPZQ 180015Z AUTO 24006KT 10SM SCT041 BKN048 OVC050 00/M07 A2985 RMK AO2 T10051075
KPZQ 172355Z AUTO 23009KT 10SM BKN050 OVC065 00/M07 A2985 RMK AO2 T10051075 10017 21007
KPZQ 172336Z AUTO 23008G16KT 10SM SCT050 OVC065 00/M08 A2985 RMK AO2 T10021082
KPZQ 172315Z AUTO 24009G15KT 10SM BKN065 BKN120 00/M10 A2985 RMK AO2 T00001097
KPZQ 172255Z AUTO 24006KT 10SM SCT050 BKN065 BKN090 00/M10 A2984 RMK AO2 T00001100
KPZQ 172235Z AUTO 24009KT 10SM SCT050 SCT065 OVC095 00/M10 A2984 RMK AO2 T00041104
KPZQ 172215Z AUTO 24010KT 10SM SCT075 OVC085 01/M11 A2984 RMK AO2 T00061109
KPZQ 172155Z AUTO 23007KT 10SM SCT055 OVC075 01/M12 A2984 RMK AO2 T00091121
KPZQ 172136Z AUTO 24009G14KT 10SM BKN055 OVC075 01/M12 A2984 RMK AO2 T00101123
KPZQ 172115Z AUTO 22010G15KT 10SM OVC055 01/M13 A2984 RMK AO2 T00111126
KPZQ 172055Z AUTO 23010G16KT 10SM OVC055 01/M13 A2984 RMK AO2 T00111126
KPZQ 172035Z AUTO 22009G18KT 10SM OVC065 01/M13 A2984 RMK AO2 T00131127
KPZQ 172015Z AUTO 23013G18KT 10SM BKN065 BKN075 OVC120 02/M13 A2984 RMK AO2 T00151127
KPZQ 171955Z AUTO 24012G18KT 10SM SCT075 OVC090 02/M13 A2985 RMK AO2 T00161126
KPZQ 171935Z AUTO 22010G19KT 10SM BKN090 BKN120 02/M12 A2985 RMK AO2 T00151125
KPZQ 171915Z AUTO 22012G18KT 10SM SCT090 SCT110 01/M12 A2987 RMK AO2 T00101124
KPZQ 171855Z AUTO 22010G16KT 10SM SCT110 00/M13 A2987 RMK AO2 T00001129
KPZQ 171835Z AUTO 22012G19KT 10SM OVC110 00/M13 A2989 RMK AO2 T00001127
KPZQ 171815Z AUTO 23014G20KT 10SM OVC090 00/M13 A2990 RMK AO2 T10041131
KPZQ 171755Z AUTO 23011KT 10SM OVC090 M01/M13 A2992 RMK AO2 T10071127 11007 21085
KPZQ 171735Z AUTO 22008G18KT 10SM OVC100 M01/M12 A2993 RMK AO2 T10111121
KPZQ 171715Z AUTO 20012G17KT 10SM OVC100 M01/M12 A2994 RMK AO2 T10151120
KPZQ 171655Z AUTO 21009G15KT 10SM BKN100 OVC120 M02/M11 A2995 RMK AO2 T10211114
KPZQ 171635Z AUTO 20009KT 10SM SCT120 M03/M11 A2996 RMK AO2 T10271111
KPZQ 171615Z AUTO 20011KT 10SM CLR M03/M11 A2996 RMK AO2 T10331110
KPZQ 171555Z AUTO 21013G19KT 10SM SCT120 M04/M11 A2998 RMK AO2 T10391106
KPZQ 171535Z AUTO 20010G18KT 10SM SCT120 M04/M10 A2999 RMK AO2 T10451104
KPZQ 171515Z AUTO 20013G18KT 10SM SCT120 M05/M11 A3000 RMK AO2 T10501106
KPZQ 171455Z AUTO 21010G17KT 10SM CLR M06/M11 A3001 RMK AO2 T10561110
KPZQ 171435Z AUTO 21012G17KT 10SM CLR M06/M11 A3002 RMK AO2 T10621111
KPZQ 171415Z AUTO 20010KT 10SM CLR M07/M11 A3003 RMK AO2 T10681112
KPZQ 171355Z AUTO 20009KT 10SM CLR M07/M11 A3005 RMK AO2 T10731115
KPZQ 171335Z AUTO 20010G14KT 10SM CLR M08/M12 A3004 RMK AO2 T10761117
KPZQ 171315Z AUTO 20010G15KT 10SM CLR M08/M12 A3004 RMK AO2 T10771120
KPZQ 171255Z AUTO 20010KT 10SM CLR M08/M12 A3004 RMK AO2 T10801122
KPZQ 171235Z AUTO 20010KT 10SM CLR M08/M12 A3005 RMK AO2 T10821123
KPZQ 171215Z AUTO 20009KT 10SM CLR M08/M12 A3005 RMK AO2 T10851125
KPZQ 171155Z AUTO 20008KT 10SM CLR M08/M12 A3007 RMK AO2 T10851125 11085 21095
KPZQ 171135Z AUTO 21006KT 10SM CLR M09/M12 A3007 RMK AO2 T10861125
KPZQ 171115Z AUTO 20007KT 10SM CLR M09/M13 A3007 RMK AO2 T10891126
KPZQ 171055Z AUTO 20006KT 10SM CLR M09/M13 A3008 RMK AO2 T10931129
KPZQ 171035Z AUTO 21006KT 10SM CLR M09/M13 A3009 RMK AO2 T10931130
KPZQ 171015Z AUTO 19006KT 10SM CLR M09/M13 A3009 RMK AO2 T10931131
KPZQ 170955Z AUTO 21004KT 10SM CLR M09/M13 A3009 RMK AO2 T10901130
KPZQ 170935Z AUTO 21004KT 10SM CLR M09/M13 A3009 RMK AO2 T10891130
KPZQ 170915Z AUTO 20003KT 10SM CLR M09/M13 A3009 RMK AO2 T10901131
KPZQ 170855Z AUTO 20005KT 10SM CLR M09/M13 A3009 RMK AO2 T10871129
KPZQ 170835Z AUTO 23005KT 10SM CLR M09/M13 A3011 RMK AO2 T10931133
KPZQ 170815Z AUTO 22003KT 10SM CLR M09/M13 A3012 RMK AO2 T10901132